Time;durP1;ratioP1;P1;durP2;ratioP2;P2;SDS_P1;SDS_P2;PMS_P1;PMS_P2;Temp;Humidity;BMP_temperature;BMP_pressure;BME280_temperature;BME280_humidity;BME280_pressure;Samples;Min_cycle;Max_cycle;Signal;HPM_P1;HPM_P2
2022/07/27 00:01:31;;;;;;;4.03;1.33;;;14.90;99.90;;;;;;5067663;28;20497;-74
2022/07/27 00:03:57;;;;;;;3.15;0.98;;;15.00;99.90;;;;;;5073088;28;20072;-73
2022/07/27 00:06:23;;;;;;;1.27;0.95;;;15.00;99.90;;;;;;5063554;28;20600;-75
2022/07/27 00:08:48;;;;;;;2.53;1.40;;;15.00;99.90;;;;;;5073818;28;20093;-75
2022/07/27 00:11:14;;;;;;;3.90;1.15;;;15.00;99.90;;;;;;5080626;28;20070;-72
2022/07/27 00:13:40;;;;;;;4.75;1.42;;;15.00;99.90;;;;;;5073984;28;20156;-76
2022/07/27 00:16:06;;;;;;;1.65;1.17;;;15.00;99.90;;;;;;5074791;28;20099;-74
2022/07/27 00:18:32;;;;;;;4.05;1.20;;;15.10;99.90;;;;;;5074527;28;20051;-74
2022/07/27 00:20:58;;;;;;;4.22;1.05;;;15.00;99.90;;;;;;5073444;28;20052;-75
2022/07/27 00:23:24;;;;;;;6.05;1.40;;;15.00;99.90;;;;;;5074328;28;20511;-72
2022/07/27 00:25:50;;;;;;;4.03;1.00;;;15.00;99.90;;;;;;5071790;28;20690;-75
2022/07/27 00:28:15;;;;;;;1.83;1.00;;;15.20;99.90;;;;;;5075264;28;20140;-75
2022/07/27 00:30:41;;;;;;;1.65;1.23;;;15.00;99.90;;;;;;5072797;28;20127;-73
2022/07/27 00:33:07;;;;;;;1.90;0.90;;;15.00;99.90;;;;;;5073484;28;20054;-75
2022/07/27 00:35:32;;;;;;;3.00;1.10;;;15.00;99.90;;;;;;5073875;28;20055;-75
2022/07/27 00:37:58;;;;;;;3.75;1.50;;;15.00;99.90;;;;;;5080736;28;20052;-74
2022/07/27 00:40:24;;;;;;;1.63;1.30;;;15.00;99.90;;;;;;5077769;28;20050;-73
2022/07/27 00:42:50;;;;;;;1.13;0.90;;;15.00;99.90;;;;;;5071778;28;20193;-75
2022/07/27 00:45:16;;;;;;;4.15;1.15;;;15.00;99.90;;;;;;5076427;28;20056;-75
2022/07/27 00:47:42;;;;;;;2.03;0.80;;;15.00;99.90;;;;;;5075317;28;20059;-75
2022/07/27 00:50:08;;;;;;;3.33;1.30;;;15.00;99.90;;;;;;5075708;28;20054;-74
2022/07/27 00:52:35;;;;;;;2.30;0.82;;;15.00;99.90;;;;;;5075727;28;20048;-75
2022/07/27 00:55:01;;;;;;;3.30;1.02;;;15.00;99.90;;;;;;5075282;28;20152;-75
2022/07/27 00:57:27;;;;;;;4.90;1.00;;;14.90;99.90;;;;;;5075237;28;20484;-74
2022/07/27 00:59:53;;;;;;;1.00;0.77;;;14.90;99.90;;;;;;5081552;28;20127;-74
2022/07/27 01:02:19;;;;;;;3.70;1.10;;;14.90;99.90;;;;;;5079514;28;20058;-73
2022/07/27 01:04:44;;;;;;;0.52;0.52;;;14.80;99.90;;;;;;5077011;28;20232;-75
2022/07/27 01:07:11;;;;;;;1.55;1.35;;;14.80;99.90;;;;;;5079111;28;20403;-75
2022/07/27 01:09:55;;;;;;;2.25;1.02;;;14.80;99.90;;;;;;5078626;28;20073;-74
2022/07/27 01:12:21;;;;;;;1.98;0.63;;;14.80;99.90;;;;;;5077448;28;20056;-75
2022/07/27 01:14:49;;;;;;;4.30;1.20;;;14.80;99.90;;;;;;5089090;28;20046;-76
2022/07/27 01:17:16;;;;;;;5.55;1.63;;;14.70;99.90;;;;;;5080823;28;20109;-75
2022/07/27 01:19:42;;;;;;;2.60;0.95;;;14.80;99.90;;;;;;5078835;28;20048;-75
2022/07/27 01:22:08;;;;;;;1.60;0.90;;;14.80;99.90;;;;;;5079396;28;20297;-74
2022/07/27 01:24:34;;;;;;;1.33;1.10;;;14.70;99.90;;;;;;5077803;28;20051;-74
2022/07/27 01:27:01;;;;;;;5.10;1.23;;;14.70;99.90;;;;;;5078752;28;20059;-75
2022/07/27 01:29:27;;;;;;;1.33;1.23;;;14.70;99.90;;;;;;5078253;28;20044;-74
2022/07/27 01:31:53;;;;;;;1.80;1.00;;;14.70;99.90;;;;;;5079524;28;20076;-76
2022/07/27 01:34:19;;;;;;;3.15;1.02;;;14.70;99.90;;;;;;5076979;28;20111;-75
2022/07/27 01:36:45;;;;;;;2.30;1.25;;;14.90;99.90;;;;;;5081397;28;20114;-75
2022/07/27 01:39:15;;;;;;;2.00;1.00;;;14.60;99.90;;;;;;5075914;28;20155;-76
2022/07/27 01:41:41;;;;;;;2.58;1.38;;;14.50;99.90;;;;;;5078478;28;20066;-76
2022/07/27 01:44:06;;;;;;;3.63;0.98;;;14.40;99.90;;;;;;5077071;28;20044;-76
2022/07/27 01:46:32;;;;;;;1.60;1.00;;;14.30;99.90;;;;;;5077362;28;20754;-75
2022/07/27 01:48:58;;;;;;;2.70;1.40;;;14.20;99.90;;;;;;5094506;28;20056;-75
2022/07/27 01:51:23;;;;;;;1.80;1.35;;;14.20;99.90;;;;;;5076882;28;20221;-74
2022/07/27 01:53:49;;;;;;;3.17;1.38;;;14.10;99.90;;;;;;5078009;28;20048;-75
2022/07/27 01:56:15;;;;;;;1.33;1.17;;;14.10;99.90;;;;;;5078127;28;20047;-76
2022/07/27 01:58:42;;;;;;;3.20;1.70;;;14.00;99.90;;;;;;5078332;28;20077;-73
2022/07/27 02:01:07;;;;;;;4.05;1.50;;;14.00;99.90;;;;;;5076413;28;20082;-73
2022/07/27 02:03:34;;;;;;;1.50;1.27;;;14.00;99.90;;;;;;5078382;28;20139;-74
2022/07/27 02:06:00;;;;;;;2.28;1.27;;;14.00;99.90;;;;;;5076963;28;20052;-75
2022/07/27 02:08:27;;;;;;;4.03;1.38;;;14.00;99.90;;;;;;5077064;28;20036;-73
2022/07/27 02:13:37;;;;;;;2.00;1.52;;;14.00;99.90;;;;;;5076522;28;20625;-72
2022/07/27 02:16:03;;;;;;;4.57;1.30;;;13.90;99.90;;;;;;5078213;28;20138;-73
2022/07/27 02:18:29;;;;;;;2.53;1.65;;;13.90;99.90;;;;;;5077811;28;20047;-72
2022/07/27 02:20:54;;;;;;;3.03;1.92;;;13.90;99.90;;;;;;5076860;28;20051;-74
2022/07/27 02:23:20;;;;;;;4.93;1.35;;;13.80;99.90;;;;;;5083197;28;20544;-73
2022/07/27 02:25:46;;;;;;;2.30;1.30;;;13.80;99.90;;;;;;5078855;28;20087;-73
2022/07/27 02:28:11;;;;;;;0.85;0.82;;;13.70;99.90;;;;;;5077517;28;20546;-73
2022/07/27 02:30:37;;;;;;;1.33;1.20;;;13.70;99.90;;;;;;5077531;28;20047;-73
2022/07/27 02:33:04;;;;;;;1.83;1.13;;;13.70;99.90;;;;;;5076908;28;20102;-74
2022/07/27 02:35:29;;;;;;;3.30;1.25;;;13.60;99.90;;;;;;5076339;28;20059;-74
2022/07/27 02:37:55;;;;;;;1.77;1.13;;;13.60;99.90;;;;;;5078522;28;20036;-73
2022/07/27 02:40:21;;;;;;;1.58;1.20;;;13.50;99.90;;;;;;5076604;28;21014;-74
2022/07/27 02:42:47;;;;;;;1.92;1.42;;;13.50;99.90;;;;;;5076143;27;20451;-74
2022/07/27 02:45:15;;;;;;;1.45;1.35;;;13.40;99.90;;;;;;5084895;28;20749;-74
2022/07/27 02:47:42;;;;;;;2.70;1.30;;;13.30;99.90;;;;;;5077129;28;20047;-74
2022/07/27 02:50:08;;;;;;;2.40;1.52;;;13.30;99.90;;;;;;5074483;28;20052;-73
2022/07/27 02:52:35;;;;;;;2.97;1.40;;;13.20;99.90;;;;;;5078575;28;20044;-75
2022/07/27 02:55:01;;;;;;;2.10;1.30;;;13.20;99.90;;;;;;5076686;28;20133;-72
2022/07/27 02:57:27;;;;;;;1.50;1.20;;;13.20;99.90;;;;;;5075544;28;20844;-74
2022/07/27 02:59:53;;;;;;;2.72;1.50;;;13.10;99.90;;;;;;5088013;28;20046;-73
2022/07/27 03:02:18;;;;;;;3.33;1.58;;;13.10;99.90;;;;;;5078098;28;20064;-73
2022/07/27 03:04:44;;;;;;;4.13;1.52;;;13.10;99.90;;;;;;5077704;28;20060;-74
2022/07/27 03:07:10;;;;;;;1.70;1.58;;;13.10;99.90;;;;;;5075853;28;20148;-74
2022/07/27 03:09:36;;;;;;;2.50;1.27;;;12.60;99.90;;;;;;5076925;28;20484;-74
2022/07/27 03:12:02;;;;;;;3.50;1.80;;;13.10;99.90;;;;;;5074389;28;20056;-73
2022/07/27 03:14:27;;;;;;;4.95;1.73;;;13.10;99.90;;;;;;5076772;28;20052;-74
2022/07/27 03:16:53;;;;;;;3.17;1.50;;;13.10;99.90;;;;;;5077000;28;20901;-73
2022/07/27 03:19:19;;;;;;;2.80;1.55;;;13.20;99.90;;;;;;5077875;28;20317;-74
2022/07/27 03:21:45;;;;;;;4.53;1.48;;;13.20;99.90;;;;;;5075112;28;20084;-74
2022/07/27 03:24:10;;;;;;;1.92;1.27;;;13.20;99.90;;;;;;5077597;28;20043;-74
2022/07/27 03:26:36;;;;;;;1.95;1.50;;;13.30;99.90;;;;;;5077265;28;20052;-74
2022/07/27 03:29:02;;;;;;;1.67;1.13;;;13.20;99.90;;;;;;5075966;28;20056;-74
2022/07/27 03:31:28;;;;;;;3.15;1.63;;;13.30;99.90;;;;;;5078674;28;20055;-72
2022/07/27 03:33:54;;;;;;;1.38;1.27;;;13.40;99.90;;;;;;5083173;28;20044;-73
2022/07/27 03:36:20;;;;;;;4.35;1.60;;;13.40;99.90;;;;;;5081378;28;20401;-73
2022/07/27 03:38:46;;;;;;;1.60;1.45;;;13.50;99.90;;;;;;5080340;28;20155;-73
2022/07/27 03:41:12;;;;;;;1.77;1.23;;;13.50;99.90;;;;;;5076196;28;20050;-74
2022/07/27 03:43:37;;;;;;;2.85;2.20;;;13.50;99.90;;;;;;5074256;28;20868;-72
2022/07/27 03:46:03;;;;;;;4.00;1.50;;;13.50;99.90;;;;;;5067232;28;20048;-73
2022/07/27 03:48:29;;;;;;;2.33;1.45;;;13.60;99.90;;;;;;5075267;28;20051;-72
2022/07/27 03:50:54;;;;;;;3.22;1.38;;;13.60;99.90;;;;;;5075888;28;20130;-74
2022/07/27 03:53:20;;;;;;;1.95;1.60;;;13.60;99.90;;;;;;5091188;28;20051;-75
2022/07/27 03:55:49;;;;;;;2.05;1.33;;;13.60;99.90;;;;;;5073952;28;20040;-75
2022/07/27 03:58:16;;;;;;;2.75;1.65;;;13.60;99.90;;;;;;5075425;28;20044;-75
2022/07/27 04:00:43;;;;;;;2.58;1.80;;;13.70;99.90;;;;;;5076297;28;20515;-74
2022/07/27 04:03:08;;;;;;;3.67;1.65;;;13.70;99.90;;;;;;5074132;28;20060;-73
2022/07/27 04:05:34;;;;;;;9.98;1.88;;;13.70;99.90;;;;;;5075384;28;20039;-73
2022/07/27 04:08:00;;;;;;;3.25;1.70;;;13.70;99.90;;;;;;5073488;28;20036;-74
2022/07/27 04:10:26;;;;;;;2.40;1.80;;;13.80;99.90;;;;;;5075919;28;20071;-74
2022/07/27 04:12:51;;;;;;;4.28;1.58;;;13.80;99.90;;;;;;5076268;28;20074;-75
2022/07/27 04:15:20;;;;;;;3.38;1.80;;;13.80;99.90;;;;;;5075660;28;20265;-75
2022/07/27 04:17:46;;;;;;;1.42;1.25;;;13.80;99.90;;;;;;5067220;28;20131;-75
2022/07/27 04:20:12;;;;;;;3.53;1.67;;;13.90;99.90;;;;;;5071470;28;20079;-74
2022/07/27 04:22:38;;;;;;;3.72;1.90;;;13.90;99.90;;;;;;5075714;28;20220;-74
2022/07/27 04:25:05;;;;;;;2.00;1.58;;;13.90;99.90;;;;;;5073995;28;20060;-71
2022/07/27 04:27:30;;;;;;;1.80;1.30;;;14.00;99.90;;;;;;5074460;28;20110;-74
2022/07/27 04:29:56;;;;;;;3.13;1.92;;;14.00;99.90;;;;;;5075455;28;20543;-75
2022/07/27 04:32:22;;;;;;;2.67;1.30;;;14.00;99.90;;;;;;5078134;28;20060;-75
2022/07/27 04:34:48;;;;;;;3.85;2.20;;;14.10;99.90;;;;;;5079657;28;20102;-75
2022/07/27 04:37:14;;;;;;;3.70;1.90;;;14.10;99.90;;;;;;5079733;28;20150;-73
2022/07/27 04:39:39;;;;;;;4.00;2.45;;;14.10;99.90;;;;;;5079740;28;20086;-74
2022/07/27 04:42:05;;;;;;;3.78;1.88;;;14.20;99.90;;;;;;5078570;28;20043;-72
2022/07/27 04:44:31;;;;;;;6.72;1.52;;;13.90;99.90;;;;;;5068679;28;20354;-75
2022/07/27 04:46:56;;;;;;;3.10;1.77;;;14.30;99.90;;;;;;5075490;28;20784;-76
2022/07/27 04:49:22;;;;;;;4.72;1.30;;;14.20;99.90;;;;;;5076986;28;20044;-75
2022/07/27 04:51:48;;;;;;;1.65;1.50;;;14.20;99.90;;;;;;5076280;28;20130;-75
2022/07/27 04:54:13;;;;;;;2.17;1.50;;;14.30;99.90;;;;;;5074470;28;20087;-68
2022/07/27 04:56:39;;;;;;;2.35;1.38;;;14.30;99.90;;;;;;5077718;28;20040;-68
2022/07/27 04:59:05;;;;;;;2.33;1.90;;;14.30;99.90;;;;;;5076045;28;20052;-67
2022/07/27 05:01:30;;;;;;;4.70;2.20;;;14.40;99.90;;;;;;5077380;28;20040;-74
2022/07/27 05:03:56;;;;;;;5.07;1.70;;;14.40;99.90;;;;;;5091126;28;20040;-75
2022/07/27 05:06:22;;;;;;;4.00;1.88;;;14.40;99.90;;;;;;5076866;28;20781;-75
2022/07/27 05:08:47;;;;;;;1.98;1.75;;;13.90;99.90;;;;;;5075435;28;20040;-74
2022/07/27 05:11:13;;;;;;;1.70;1.50;;;14.50;99.90;;;;;;5075569;28;20048;-74
2022/07/27 05:13:39;;;;;;;3.25;1.90;;;14.50;99.90;;;;;;5076019;28;20043;-71
2022/07/27 05:16:09;;;;;;;2.90;2.33;;;14.60;99.90;;;;;;5077225;28;20450;-74
2022/07/27 05:18:36;;;;;;;3.33;1.95;;;14.60;99.90;;;;;;5076583;28;20087;-72
2022/07/27 05:21:02;;;;;;;3.28;2.30;;;14.80;99.90;;;;;;5076175;28;20906;-75
2022/07/27 05:23:28;;;;;;;2.45;1.67;;;14.80;99.90;;;;;;5076062;28;20173;-74
2022/07/27 05:25:54;;;;;;;3.38;1.85;;;14.90;99.90;;;;;;5075955;28;20052;-72
2022/07/27 05:28:19;;;;;;;3.17;1.90;;;15.00;99.90;;;;;;5075848;28;20621;-73
2022/07/27 05:30:45;;;;;;;8.02;2.35;;;15.00;99.90;;;;;;5074419;28;20104;-73
2022/07/27 05:33:11;;;;;;;3.45;1.52;;;15.00;99.90;;;;;;5078691;28;20044;-74
2022/07/27 05:35:37;;;;;;;4.57;1.92;;;15.00;99.90;;;;;;5076538;28;20127;-74
2022/07/27 05:38:03;;;;;;;3.60;2.35;;;15.10;99.90;;;;;;5074880;28;20044;-73
2022/07/27 05:40:29;;;;;;;2.65;1.88;;;15.10;99.90;;;;;;5073857;28;20133;-71
2022/07/27 05:42:55;;;;;;;2.35;2.13;;;15.00;99.90;;;;;;5077791;28;20059;-74
2022/07/27 05:45:20;;;;;;;2.28;2.03;;;15.00;99.90;;;;;;5076795;28;20052;-71
2022/07/27 05:47:46;;;;;;;3.25;2.45;;;15.00;99.90;;;;;;5075290;28;20472;-72
2022/07/27 05:50:12;;;;;;;5.43;1.83;;;15.00;99.90;;;;;;5075013;28;20048;-75
2022/07/27 05:52:38;;;;;;;5.43;2.42;;;15.10;99.90;;;;;;5076430;28;20154;-74
2022/07/27 05:55:05;;;;;;;4.53;2.08;;;15.20;99.90;;;;;;5075748;28;20074;-72
2022/07/27 05:57:30;;;;;;;3.22;1.98;;;15.20;99.90;;;;;;5075647;28;20044;-75
2022/07/27 05:59:57;;;;;;;7.65;3.65;;;15.20;99.90;;;;;;5075135;28;20044;-74
2022/07/27 06:02:24;;;;;;;4.07;1.65;;;15.30;99.90;;;;;;5085848;28;20093;-73
2022/07/27 06:04:49;;;;;;;6.72;2.30;;;15.20;99.90;;;;;;5088752;28;20055;-72
2022/07/27 06:09:59;;;;;;;5.05;1.83;;;15.20;99.90;;;;;;5066668;28;20081;-73
2022/07/27 06:12:26;;;;;;;6.05;2.20;;;15.20;99.90;;;;;;5070479;28;20071;-72
2022/07/27 06:14:52;;;;;;;3.70;1.77;;;15.10;99.90;;;;;;5072014;28;20667;-73
2022/07/27 06:17:18;;;;;;;2.95;1.55;;;15.20;99.90;;;;;;5073483;28;20047;-73
2022/07/27 06:19:44;;;;;;;3.53;1.70;;;15.10;99.90;;;;;;5074520;28;20052;-72
2022/07/27 06:22:10;;;;;;;4.28;1.48;;;15.10;99.90;;;;;;5075448;28;20056;-73
2022/07/27 06:24:35;;;;;;;5.35;1.63;;;15.20;99.90;;;;;;5077181;28;20101;-72
2022/07/27 06:27:01;;;;;;;7.03;1.67;;;15.20;99.90;;;;;;5071987;28;20915;-72
2022/07/27 06:29:27;;;;;;;1.65;1.55;;;15.20;99.90;;;;;;5073925;28;20805;-74
2022/07/27 06:31:53;;;;;;;4.38;2.00;;;15.20;99.90;;;;;;5071699;28;20044;-73
2022/07/27 06:34:19;;;;;;;3.15;1.67;;;15.30;99.90;;;;;;5071158;28;20095;-72
2022/07/27 06:36:44;;;;;;;3.28;1.88;;;15.40;99.90;;;;;;5071282;28;20044;-71
2022/07/27 06:39:11;;;;;;;2.42;1.45;;;15.50;99.90;;;;;;5067436;28;20064;-74
2022/07/27 06:41:37;;;;;;;2.53;1.52;;;15.70;99.90;;;;;;5071077;28;20062;-73
2022/07/27 06:44:03;;;;;;;3.53;1.25;;;15.80;99.90;;;;;;5071161;28;20044;-74
2022/07/27 06:46:29;;;;;;;3.00;1.67;;;15.90;99.90;;;;;;5074606;28;20040;-71
2022/07/27 06:48:55;;;;;;;2.38;1.48;;;16.10;99.90;;;;;;5072777;28;20044;-73
2022/07/27 06:51:22;;;;;;;2.72;1.80;;;16.20;99.90;;;;;;5073678;28;20090;-74
2022/07/27 06:53:52;;;;;;;5.85;2.03;;;16.40;99.90;;;;;;5074133;28;20035;-74
2022/07/27 06:56:18;;;;;;;2.00;1.38;;;16.70;99.90;;;;;;5075370;28;20051;-74
2022/07/27 06:58:44;;;;;;;4.80;1.60;;;17.50;99.90;;;;;;5072306;28;20052;-71
2022/07/27 07:01:10;;;;;;;2.65;1.35;;;18.20;99.90;;;;;;5075751;28;20060;-71
2022/07/27 07:03:36;;;;;;;2.45;1.50;;;18.80;99.90;;;;;;5076124;28;20050;-71
2022/07/27 07:06:02;;;;;;;4.18;1.42;;;19.80;99.90;;;;;;5073661;28;20052;-71
2022/07/27 07:08:27;;;;;;;2.90;1.35;;;20.90;99.90;;;;;;5073104;28;20763;-71
2022/07/27 07:10:53;;;;;;;1.92;1.35;;;21.80;99.90;;;;;;5074214;28;20109;-71
2022/07/27 07:13:19;;;;;;;4.60;1.65;;;22.60;99.90;;;;;;5074060;28;20052;-71
2022/07/27 07:15:44;;;;;;;4.55;1.55;;;23.00;99.90;;;;;;5072818;28;20059;-71
2022/07/27 07:18:11;;;;;;;1.45;1.20;;;23.50;99.90;;;;;;5076500;28;20046;-71
2022/07/27 07:20:37;;;;;;;4.45;2.40;;;24.20;99.90;;;;;;5076184;28;20082;-71
2022/07/27 07:23:04;;;;;;;3.10;1.17;;;24.80;99.90;;;;;;5073657;28;20102;-72
2022/07/27 07:25:31;;;;;;;1.67;0.93;;;25.60;98.70;;;;;;5073723;28;20573;-71
2022/07/27 07:27:58;;;;;;;2.60;1.02;;;26.20;97.60;;;;;;5073648;28;20048;-71
2022/07/27 07:30:24;;;;;;;5.35;1.58;;;26.60;96.10;;;;;;5073994;28;20044;-72
2022/07/27 07:32:50;;;;;;;6.10;1.52;;;26.70;94.30;;;;;;5055035;28;20048;-71
2022/07/27 07:35:17;;;;;;;4.50;1.40;;;26.90;93.60;;;;;;5074112;28;20067;-71
2022/07/27 07:37:42;;;;;;;3.25;1.17;;;26.80;92.80;;;;;;5072513;28;20459;-71
2022/07/27 07:40:09;;;;;;;4.95;1.13;;;27.20;92.10;;;;;;5072677;28;20704;-71
2022/07/27 07:42:58;;;;;;;3.72;1.33;;;27.00;91.10;;;;;;5073221;28;20055;-72
2022/07/27 07:45:25;;;;;;;2.67;1.05;;;27.00;81.90;;;;;;5071235;28;20052;-72
2022/07/27 07:47:51;;;;;;;1.75;1.10;;;27.30;90.50;;;;;;5071381;28;20110;-72
2022/07/27 07:50:18;;;;;;;2.70;1.38;;;27.30;89.60;;;;;;5075921;28;20044;-74
2022/07/27 07:52:46;;;;;;;1.90;0.88;;;27.70;88.90;;;;;;5070679;28;20063;-72
2022/07/27 07:55:11;;;;;;;3.95;1.38;;;27.70;88.50;;;;;;5074461;28;20066;-72
2022/07/27 07:57:37;;;;;;;3.30;1.08;;;27.70;87.50;;;;;;5072972;28;20554;-72
2022/07/27 08:00:05;;;;;;;2.78;1.25;;;26.70;86.90;;;;;;5074592;28;20347;-74
2022/07/27 08:02:31;;;;;;;5.03;1.20;;;25.60;86.90;;;;;;5072990;28;20509;-75
2022/07/27 08:04:56;;;;;;;2.25;1.48;;;24.70;87.60;;;;;;5075616;28;20040;-68
2022/07/27 08:07:22;;;;;;;5.25;1.92;;;23.80;88.20;;;;;;5074204;28;20040;-70
2022/07/27 08:09:48;;;;;;;4.22;1.58;;;22.60;88.10;;;;;;5075097;28;20993;-69
2022/07/27 08:12:14;;;;;;;3.15;1.67;;;21.00;90.90;;;;;;5075028;28;20048;-69
2022/07/27 08:14:39;;;;;;;2.90;1.60;;;20.00;95.00;;;;;;5075424;28;20048;-70
2022/07/27 08:17:05;;;;;;;2.53;1.23;;;19.10;98.00;;;;;;5074257;28;20130;-69
2022/07/27 08:19:30;;;;;;;3.80;1.48;;;18.10;99.90;;;;;;5074859;28;20083;-69
2022/07/27 08:21:56;;;;;;;4.05;1.27;;;17.60;99.90;;;;;;5073960;28;20072;-69
2022/07/27 08:24:22;;;;;;;3.53;1.55;;;17.40;99.90;;;;;;5074085;28;20047;-70
2022/07/27 08:26:47;;;;;;;3.53;1.45;;;17.10;99.90;;;;;;5071626;28;20602;-73
2022/07/27 08:29:13;;;;;;;2.25;1.63;;;16.90;99.90;;;;;;5067324;28;20051;-73
2022/07/27 08:31:39;;;;;;;3.53;2.00;;;17.20;99.90;;;;;;5074234;28;20165;-73
2022/07/27 08:34:04;;;;;;;1.95;1.30;;;17.30;99.90;;;;;;5071771;28;20051;-73
2022/07/27 08:36:30;;;;;;;2.55;1.38;;;17.30;99.90;;;;;;5075225;28;20571;-74
2022/07/27 08:38:56;;;;;;;2.45;1.35;;;17.30;99.90;;;;;;5081570;28;20510;-75
2022/07/27 08:41:23;;;;;;;2.50;1.25;;;17.40;99.90;;;;;;5074908;28;20120;-74
2022/07/27 08:43:49;;;;;;;4.50;1.63;;;17.50;99.90;;;;;;5072042;28;20100;-72
2022/07/27 08:46:17;;;;;;;3.30;1.30;;;17.40;99.90;;;;;;5054972;28;20527;-74
2022/07/27 08:48:43;;;;;;;7.22;1.70;;;17.40;99.90;;;;;;5073805;28;20274;-73
2022/07/27 08:51:10;;;;;;;3.78;1.80;;;17.40;99.90;;;;;;5072588;28;20109;-74
2022/07/27 08:53:36;;;;;;;4.05;1.33;;;17.40;99.90;;;;;;5055731;28;20069;-73
2022/07/27 08:56:02;;;;;;;5.93;2.35;;;17.40;99.90;;;;;;5072167;28;20135;-74
2022/07/27 08:58:28;;;;;;;2.83;1.42;;;17.40;99.90;;;;;;5074726;28;20040;-74
2022/07/27 09:00:54;;;;;;;4.18;1.30;;;17.30;99.90;;;;;;5073270;28;20244;-74
2022/07/27 09:03:22;;;;;;;3.33;1.50;;;17.50;99.90;;;;;;5072864;28;20048;-73
2022/07/27 09:05:57;;;;;;;3.88;1.63;;;17.40;99.90;;;;;;5072454;28;20044;-74
2022/07/27 09:08:27;;;;;;;1.95;1.33;;;17.50;99.90;;;;;;5071009;28;20056;-73
2022/07/27 09:10:55;;;;;;;2.60;1.20;;;17.50;99.90;;;;;;5077395;28;20061;-73
2022/07/27 09:13:26;;;;;;;4.13;1.38;;;17.50;99.90;;;;;;5074333;28;20385;-73
2022/07/27 09:15:56;;;;;;;2.30;1.10;;;17.40;99.90;;;;;;5073418;28;20040;-74
2022/07/27 09:18:24;;;;;;;2.78;1.33;;;17.40;99.90;;;;;;5074994;28;20044;-75
2022/07/27 09:21:22;;;;;;;2.17;1.23;;;17.70;99.90;;;;;;5080214;28;20059;-73
2022/07/27 09:24:06;;;;;;;4.00;1.33;;;18.50;99.90;;;;;;5077564;28;20090;-74
2022/07/27 09:26:32;;;;;;;4.35;1.40;;;19.40;97.00;;;;;;5075082;28;20087;-74
2022/07/27 09:29:02;;;;;;;2.10;1.08;;;19.60;99.50;;;;;;5066026;28;20127;-75
2022/07/27 09:31:29;;;;;;;1.88;1.50;;;19.80;98.90;;;;;;5071402;28;20043;-73
2022/07/27 09:33:58;;;;;;;2.10;1.00;;;19.50;98.40;;;;;;5078588;28;20494;-74
2022/07/27 09:36:25;;;;;;;2.88;1.10;;;19.60;98.70;;;;;;5078224;28;20071;-75
2022/07/27 09:38:51;;;;;;;2.00;1.38;;;19.60;98.50;;;;;;5072361;28;20136;-74
2022/07/27 09:41:16;;;;;;;2.53;1.08;;;19.70;98.10;;;;;;5072589;28;20044;-75
2022/07/27 09:43:48;;;;;;;3.55;1.20;;;19.90;97.40;;;;;;5078332;28;20787;-75
2022/07/27 09:46:13;;;;;;;2.53;1.30;;;20.00;97.00;;;;;;5078197;28;20055;-75
2022/07/27 09:48:39;;;;;;;4.28;1.05;;;20.00;96.40;;;;;;5077307;28;20040;-75
2022/07/27 09:51:08;;;;;;;3.08;1.30;;;20.30;96.60;;;;;;5076362;28;20349;-75
2022/07/27 09:53:35;;;;;;;3.30;1.27;;;20.60;96.30;;;;;;5076219;28;20400;-75
2022/07/27 09:56:05;;;;;;;3.83;1.20;;;20.70;95.30;;;;;;5076242;28;20785;-77
2022/07/27 09:58:40;;;;;;;4.95;0.90;;;20.70;93.30;;;;;;5079005;28;20081;-76
2022/07/27 10:01:08;;;;;;;2.05;1.30;;;21.00;93.30;;;;;;5080750;28;20051;-75
2022/07/27 10:03:35;;;;;;;3.72;1.40;;;21.20;94.80;;;;;;5076817;28;20125;-76
2022/07/27 10:06:02;;;;;;;1.30;1.10;;;21.10;94.60;;;;;;5076531;28;20052;-76
2022/07/27 10:08:28;;;;;;;6.32;1.58;;;20.90;93.80;;;;;;5074204;28;20113;-75
2022/07/27 10:10:55;;;;;;;2.50;1.02;;;20.80;93.00;;;;;;5075971;28;20043;-77
2022/07/27 10:13:22;;;;;;;3.75;0.98;;;21.00;92.00;;;;;;5075083;28;20132;-76
2022/07/27 10:15:47;;;;;;;1.35;1.00;;;20.80;91.70;;;;;;5078141;28;20047;-78
2022/07/27 10:18:34;;;;;;;1.65;1.17;;;20.50;91.60;;;;;;5075214;28;20051;-75
2022/07/27 10:21:07;;;;;;;3.00;1.10;;;20.60;90.30;;;;;;5075769;28;20060;-77
2022/07/27 10:23:36;;;;;;;2.35;1.02;;;20.70;90.90;;;;;;5083500;28;20073;-77
2022/07/27 10:26:34;;;;;;;2.25;1.10;;;20.90;91.40;;;;;;5076594;28;20071;-75
2022/07/27 10:29:26;;;;;;;1.55;1.05;;;21.00;89.10;;;;;;5071733;28;20569;-76
2022/07/27 10:31:59;;;;;;;1.00;0.95;;;21.40;87.70;;;;;;5070597;28;20087;-77
2022/07/27 10:34:34;;;;;;;2.83;1.40;;;22.00;88.20;;;;;;5075219;28;20105;-76
2022/07/27 10:37:23;;;;;;;3.50;1.10;;;23.00;86.20;;;;;;5071292;28;20159;-75
2022/07/27 10:40:33;;;;;;;2.30;1.20;;;23.30;84.40;;;;;;5074671;28;20128;-76
2022/07/27 10:42:41;;;;;;;3.80;1.30;;;23.00;82.20;;;;;;5074655;28;20905;-76
2022/07/27 10:45:11;;;;;;;2.50;1.15;;;22.70;82.90;;;;;;5075389;28;20052;-74
2022/07/27 10:47:41;;;;;;;3.83;1.00;;;21.90;87.90;;;;;;5076579;28;20063;-75
2022/07/27 10:50:16;;;;;;;1.95;0.85;;;21.00;84.60;;;;;;5074496;28;20056;-77
2022/07/27 10:52:43;;;;;;;2.28;1.20;;;20.90;88.40;;;;;;5076045;28;20046;-75
2022/07/27 10:55:28;;;;;;;1.70;1.10;;;20.80;89.00;;;;;;5073633;28;20044;-75
2022/07/27 10:58:18;;;;;;;1.25;1.00;;;20.80;86.50;;;;;;5077964;28;20055;-78
2022/07/27 11:00:50;;;;;;;4.93;1.30;;;21.20;86.10;;;;;;5075227;28;20086;-78
2022/07/27 11:03:27;;;;;;;1.30;0.88;;;21.10;84.70;;;;;;5071161;28;20059;-79
2022/07/27 11:06:09;;;;;;;2.92;0.93;;;21.20;85.70;;;;;;5076323;28;20166;-75
2022/07/27 11:08:40;;;;;;;1.42;0.90;;;21.00;85.10;;;;;;5071968;28;20046;-76
2022/07/27 11:11:08;;;;;;;1.25;0.90;;;20.90;85.70;;;;;;5074854;28;20131;-76
2022/07/27 11:13:35;;;;;;;5.55;1.33;;;20.90;87.00;;;;;;5073590;28;20127;-78
2022/07/27 11:16:03;;;;;;;1.08;0.50;;;20.80;87.60;;;;;;5074183;28;20227;-76
2022/07/27 11:18:31;;;;;;;2.83;1.00;;;20.60;85.90;;;;;;5075009;28;20055;-76
2022/07/27 11:21:16;;;;;;;1.10;0.63;;;20.50;86.60;;;;;;5072885;28;20048;-78
2022/07/27 11:23:48;;;;;;;1.90;1.10;;;20.40;83.90;;;;;;5075987;28;20039;-76
2022/07/27 11:26:14;;;;;;;1.95;1.05;;;20.20;85.00;;;;;;5072746;28;20056;-76
2022/07/27 11:28:40;;;;;;;1.27;0.55;;;20.00;86.00;;;;;;5074413;28;20035;-75
2022/07/27 11:31:09;;;;;;;1.85;0.80;;;20.10;87.20;;;;;;5075413;28;20139;-74
2022/07/27 11:33:35;;;;;;;1.33;0.60;;;20.20;86.50;;;;;;5070818;28;20048;-75
2022/07/27 11:36:04;;;;;;;0.70;0.63;;;20.50;88.10;;;;;;5070853;28;20055;-76
2022/07/27 11:38:44;;;;;;;2.13;0.75;;;20.70;87.20;;;;;;5069082;28;20061;-78
2022/07/27 11:41:12;;;;;;;1.83;0.60;;;20.90;80.40;;;;;;5070443;28;20083;-78
2022/07/27 11:43:42;;;;;;;3.85;1.00;;;20.90;83.50;;;;;;5070510;28;20450;-78
2022/07/27 11:46:23;;;;;;;3.33;0.95;;;21.00;84.50;;;;;;5067672;28;20567;-78
2022/07/27 11:49:01;;;;;;;3.28;1.08;;;20.50;83.20;;;;;;5071222;28;20048;-78
2022/07/27 11:51:28;;;;;;;1.67;0.90;;;19.90;86.10;;;;;;5072140;28;20066;-76
2022/07/27 11:54:03;;;;;;;2.47;0.85;;;19.60;87.00;;;;;;5072107;28;20046;-74
2022/07/27 11:56:31;;;;;;;2.28;0.75;;;19.50;88.20;;;;;;5070536;28;20303;-74
2022/07/27 11:58:57;;;;;;;3.05;1.00;;;19.40;89.70;;;;;;5069739;28;20109;-77
2022/07/27 12:01:27;;;;;;;1.63;1.25;;;19.50;89.80;;;;;;5072738;28;20047;-76
2022/07/27 12:04:17;;;;;;;0.77;0.77;;;19.50;90.10;;;;;;5067303;28;20430;-75
2022/07/27 12:06:45;;;;;;;1.13;0.75;;;19.60;89.90;;;;;;5057541;28;20090;-75
2022/07/27 12:09:14;;;;;;;2.80;1.10;;;19.50;88.90;;;;;;5071521;28;20054;-75
2022/07/27 12:11:53;;;;;;;1.55;1.08;;;19.50;89.10;;;;;;5074518;28;20043;-76
2022/07/27 12:14:32;;;;;;;1.90;0.73;;;19.80;88.30;;;;;;5069814;28;20099;-77
2022/07/27 12:17:08;;;;;;;2.08;0.77;;;19.70;88.20;;;;;;5070391;28;20036;-75
2022/07/27 12:19:33;;;;;;;3.25;1.48;;;19.90;89.60;;;;;;5070721;28;20044;-75
2022/07/27 12:22:00;;;;;;;1.27;1.25;;;19.80;87.70;;;;;;5068472;28;20095;-77
2022/07/27 12:24:41;;;;;;;1.30;0.55;;;20.10;87.50;;;;;;5069630;28;20048;-75
2022/07/27 12:27:15;;;;;;;3.22;1.60;;;20.30;87.40;;;;;;5069714;28;20111;-79
2022/07/27 12:30:01;;;;;;;1.70;0.98;;;20.50;87.50;;;;;;5070838;28;20522;-78
2022/07/27 12:32:29;;;;;;;2.15;1.10;;;20.50;87.00;;;;;;5070740;28;20606;-78
2022/07/27 12:34:55;;;;;;;2.10;1.10;;;20.50;89.10;;;;;;5071742;28;20051;-74
2022/07/27 12:37:21;;;;;;;2.95;0.90;;;20.20;88.70;;;;;;5068614;28;21017;-75
2022/07/27 12:39:49;;;;;;;2.85;1.13;;;20.10;89.10;;;;;;5071874;28;20109;-76
2022/07/27 12:42:15;;;;;;;1.38;0.65;;;20.30;88.20;;;;;;5067817;28;20036;-75
2022/07/27 12:44:45;;;;;;;1.73;1.00;;;20.40;88.00;;;;;;5068526;28;20043;-76
2022/07/27 12:50:05;;;;;;;4.72;1.00;;;20.10;88.50;;;;;;5060738;28;20743;-76
2022/07/27 12:52:31;;;;;;;2.80;1.10;;;20.00;87.50;;;;;;5068990;28;20079;-74
2022/07/27 12:54:57;;;;;;;3.33;0.88;;;19.80;88.00;;;;;;5061097;28;20537;-77
2022/07/27 12:57:24;;;;;;;2.67;1.20;;;19.90;89.40;;;;;;5071212;28;20051;-76
2022/07/27 12:59:50;;;;;;;3.75;1.27;;;19.80;90.10;;;;;;5075479;28;20039;-77